Francisco Beltrao, Brazil
Current Conditions -  °F | °C
As of 7:00 PM on Monday 22 Dec 2014 (Local Time) from SBCH Reporting Station
Broken Clouds Broken Clouds  
Wind Chill: 72°   Ceiling: 4000
Heat Index: 72°   Visibility: 6mi
Dew Point: 61°   Wind: 12mph
Humidity: 69%   Direction: 200°SSW
Pressure: 29.97"   Gusts: 23mph
Location:  26.08°S, 53.05°W
Report Text: SBCH 222100Z 20010G20KT 9999 BKN040 22/16 Q1015
Loading
Personal Weather Stations






























Interactive Weather Map New forecast layout! Learn more

10-Day Weather Forecast

Advertisements
Track Severe Weather on mobile